sensor_id;sensor_type;location;lat;lon;timestamp;P1;durP1;ratioP1;P2;durP2;ratioP2
64375;SDS011;50700;55.416;12.952;2023-07-16T00:01:36;4.90;;;2.40;;
64375;SDS011;50700;55.416;12.952;2023-07-16T00:04:02;4.07;;;2.42;;
64375;SDS011;50700;55.416;12.952;2023-07-16T00:06:27;4.85;;;3.00;;
64375;SDS011;50700;55.416;12.952;2023-07-16T00:08:52;4.13;;;2.60;;
64375;SDS011;50700;55.416;12.952;2023-07-16T00:11:18;5.53;;;3.03;;
64375;SDS011;50700;55.416;12.952;2023-07-16T00:13:43;3.75;;;2.58;;
64375;SDS011;50700;55.416;12.952;2023-07-16T00:16:12;3.65;;;2.63;;
64375;SDS011;50700;55.416;12.952;2023-07-16T00:18:38;6.45;;;3.95;;
64375;SDS011;50700;55.416;12.952;2023-07-16T00:21:03;4.28;;;2.42;;
64375;SDS011;50700;55.416;12.952;2023-07-16T00:23:28;6.97;;;3.13;;
64375;SDS011;50700;55.416;12.952;2023-07-16T00:25:54;4.65;;;2.88;;
64375;SDS011;50700;55.416;12.952;2023-07-16T00:28:19;4.22;;;2.90;;
64375;SDS011;50700;55.416;12.952;2023-07-16T00:30:45;6.45;;;3.30;;
64375;SDS011;50700;55.416;12.952;2023-07-16T00:33:10;5.32;;;2.55;;
64375;SDS011;50700;55.416;12.952;2023-07-16T00:35:35;3.70;;;2.83;;
64375;SDS011;50700;55.416;12.952;2023-07-16T00:38:01;3.70;;;2.75;;
64375;SDS011;50700;55.416;12.952;2023-07-16T00:40:26;5.47;;;3.08;;
64375;SDS011;50700;55.416;12.952;2023-07-16T00:42:51;4.20;;;3.03;;
64375;SDS011;50700;55.416;12.952;2023-07-16T00:45:17;4.53;;;2.80;;
64375;SDS011;50700;55.416;12.952;2023-07-16T00:47:43;4.30;;;2.70;;
64375;SDS011;50700;55.416;12.952;2023-07-16T00:50:09;4.18;;;2.90;;
64375;SDS011;50700;55.416;12.952;2023-07-16T00:52:35;2.97;;;2.65;;
64375;SDS011;50700;55.416;12.952;2023-07-16T00:55:01;9.02;;;3.30;;
64375;SDS011;50700;55.416;12.952;2023-07-16T00:57:26;4.68;;;2.67;;
64375;SDS011;50700;55.416;12.952;2023-07-16T00:59:52;5.13;;;2.83;;
64375;SDS011;50700;55.416;12.952;2023-07-16T01:02:18;2.97;;;2.45;;
64375;SDS011;50700;55.416;12.952;2023-07-16T01:04:43;3.25;;;2.58;;
64375;SDS011;50700;55.416;12.952;2023-07-16T01:07:08;3.55;;;2.80;;
64375;SDS011;50700;55.416;12.952;2023-07-16T01:09:36;4.38;;;2.65;;
64375;SDS011;50700;55.416;12.952;2023-07-16T01:12:06;6.10;;;2.90;;
64375;SDS011;50700;55.416;12.952;2023-07-16T01:14:32;4.18;;;2.97;;
64375;SDS011;50700;55.416;12.952;2023-07-16T01:17:01;4.10;;;2.70;;
64375;SDS011;50700;55.416;12.952;2023-07-16T01:19:27;5.03;;;2.92;;
64375;SDS011;50700;55.416;12.952;2023-07-16T01:25:04;7.13;;;3.08;;
64375;SDS011;50700;55.416;12.952;2023-07-16T01:27:29;9.15;;;3.70;;
64375;SDS011;50700;55.416;12.952;2023-07-16T01:30:03;5.63;;;3.50;;
64375;SDS011;50700;55.416;12.952;2023-07-16T01:34:54;4.38;;;3.08;;
64375;SDS011;50700;55.416;12.952;2023-07-16T01:37:19;5.00;;;3.25;;
64375;SDS011;50700;55.416;12.952;2023-07-16T01:39:45;5.35;;;3.13;;
64375;SDS011;50700;55.416;12.952;2023-07-16T01:42:10;7.03;;;2.97;;
64375;SDS011;50700;55.416;12.952;2023-07-16T01:44:35;3.28;;;2.70;;
64375;SDS011;50700;55.416;12.952;2023-07-16T01:47:15;4.63;;;2.80;;
64375;SDS011;50700;55.416;12.952;2023-07-16T01:49:41;2.60;;;1.98;;
64375;SDS011;50700;55.416;12.952;2023-07-16T01:52:07;3.05;;;2.15;;
64375;SDS011;50700;55.416;12.952;2023-07-16T01:54:34;3.67;;;2.00;;
64375;SDS011;50700;55.416;12.952;2023-07-16T01:57:00;4.65;;;1.95;;
64375;SDS011;50700;55.416;12.952;2023-07-16T01:59:25;4.30;;;1.83;;
64375;SDS011;50700;55.416;12.952;2023-07-16T02:01:50;3.08;;;1.85;;
64375;SDS011;50700;55.416;12.952;2023-07-16T02:04:16;2.22;;;1.75;;
64375;SDS011;50700;55.416;12.952;2023-07-16T02:06:41;3.38;;;1.90;;
64375;SDS011;50700;55.416;12.952;2023-07-16T02:09:06;2.15;;;1.73;;
64375;SDS011;50700;55.416;12.952;2023-07-16T02:11:32;3.28;;;1.60;;
64375;SDS011;50700;55.416;12.952;2023-07-16T02:13:57;3.08;;;2.00;;
64375;SDS011;50700;55.416;12.952;2023-07-16T02:16:23;2.90;;;1.67;;
64375;SDS011;50700;55.416;12.952;2023-07-16T02:18:48;2.28;;;2.00;;
64375;SDS011;50700;55.416;12.952;2023-07-16T02:21:13;2.30;;;1.88;;
64375;SDS011;50700;55.416;12.952;2023-07-16T02:23:39;2.95;;;2.50;;
64375;SDS011;50700;55.416;12.952;2023-07-16T02:26:04;3.63;;;1.70;;
64375;SDS011;50700;55.416;12.952;2023-07-16T02:28:30;4.00;;;1.90;;
64375;SDS011;50700;55.416;12.952;2023-07-16T02:30:56;5.35;;;1.98;;
64375;SDS011;50700;55.416;12.952;2023-07-16T02:33:21;3.70;;;1.80;;
64375;SDS011;50700;55.416;12.952;2023-07-16T02:35:47;6.10;;;1.75;;
64375;SDS011;50700;55.416;12.952;2023-07-16T02:38:14;3.92;;;1.63;;
64375;SDS011;50700;55.416;12.952;2023-07-16T02:40:44;3.90;;;2.30;;
64375;SDS011;50700;55.416;12.952;2023-07-16T02:43:12;4.35;;;1.67;;
64375;SDS011;50700;55.416;12.952;2023-07-16T02:45:38;2.25;;;1.50;;
64375;SDS011;50700;55.416;12.952;2023-07-16T02:48:04;4.63;;;1.60;;
64375;SDS011;50700;55.416;12.952;2023-07-16T02:50:30;3.67;;;1.60;;
64375;SDS011;50700;55.416;12.952;2023-07-16T02:52:55;3.25;;;1.23;;
64375;SDS011;50700;55.416;12.952;2023-07-16T02:55:20;2.28;;;1.10;;
64375;SDS011;50700;55.416;12.952;2023-07-16T02:57:46;2.53;;;1.10;;
64375;SDS011;50700;55.416;12.952;2023-07-16T03:00:11;3.13;;;1.27;;
64375;SDS011;50700;55.416;12.952;2023-07-16T03:02:37;3.63;;;1.00;;
64375;SDS011;50700;55.416;12.952;2023-07-16T03:05:02;2.55;;;1.23;;
64375;SDS011;50700;55.416;12.952;2023-07-16T03:07:28;2.67;;;1.23;;
64375;SDS011;50700;55.416;12.952;2023-07-16T03:09:53;1.05;;;0.90;;
64375;SDS011;50700;55.416;12.952;2023-07-16T03:12:19;0.77;;;0.70;;
64375;SDS011;50700;55.416;12.952;2023-07-16T03:14:44;3.92;;;1.25;;
64375;SDS011;50700;55.416;12.952;2023-07-16T03:17:10;3.00;;;1.33;;
64375;SDS011;50700;55.416;12.952;2023-07-16T03:19:35;2.80;;;1.42;;
64375;SDS011;50700;55.416;12.952;2023-07-16T03:22:01;2.92;;;1.10;;
64375;SDS011;50700;55.416;12.952;2023-07-16T03:24:28;1.35;;;0.95;;
64375;SDS011;50700;55.416;12.952;2023-07-16T03:26:53;1.27;;;1.10;;
64375;SDS011;50700;55.416;12.952;2023-07-16T03:29:18;1.70;;;1.20;;
64375;SDS011;50700;55.416;12.952;2023-07-16T03:31:44;1.90;;;1.02;;
64375;SDS011;50700;55.416;12.952;2023-07-16T03:34:09;2.83;;;1.10;;
64375;SDS011;50700;55.416;12.952;2023-07-16T03:36:35;2.25;;;1.02;;
64375;SDS011;50700;55.416;12.952;2023-07-16T03:39:00;2.88;;;1.02;;
64375;SDS011;50700;55.416;12.952;2023-07-16T03:41:25;1.77;;;1.10;;
64375;SDS011;50700;55.416;12.952;2023-07-16T03:43:51;2.67;;;1.30;;
64375;SDS011;50700;55.416;12.952;2023-07-16T03:46:16;2.13;;;1.30;;
64375;SDS011;50700;55.416;12.952;2023-07-16T03:48:42;2.67;;;1.20;;
64375;SDS011;50700;55.416;12.952;2023-07-16T03:51:07;1.20;;;1.10;;
64375;SDS011;50700;55.416;12.952;2023-07-16T03:53:32;1.77;;;1.17;;
64375;SDS011;50700;55.416;12.952;2023-07-16T03:55:58;6.32;;;1.25;;
64375;SDS011;50700;55.416;12.952;2023-07-16T03:58:23;3.53;;;1.33;;
64375;SDS011;50700;55.416;12.952;2023-07-16T04:00:49;1.25;;;1.10;;
64375;SDS011;50700;55.416;12.952;2023-07-16T04:03:14;1.40;;;1.13;;
64375;SDS011;50700;55.416;12.952;2023-07-16T04:05:39;2.63;;;1.20;;
64375;SDS011;50700;55.416;12.952;2023-07-16T04:08:05;1.98;;;1.15;;
64375;SDS011;50700;55.416;12.952;2023-07-16T04:10:30;3.20;;;1.42;;
64375;SDS011;50700;55.416;12.952;2023-07-16T04:12:56;4.50;;;1.42;;
64375;SDS011;50700;55.416;12.952;2023-07-16T04:15:21;3.42;;;1.52;;
64375;SDS011;50700;55.416;12.952;2023-07-16T04:17:46;1.55;;;1.00;;
64375;SDS011;50700;55.416;12.952;2023-07-16T04:20:12;3.13;;;1.17;;
64375;SDS011;50700;55.416;12.952;2023-07-16T04:22:38;2.05;;;1.17;;
64375;SDS011;50700;55.416;12.952;2023-07-16T04:25:04;1.45;;;1.15;;
64375;SDS011;50700;55.416;12.952;2023-07-16T04:27:29;3.40;;;1.90;;
64375;SDS011;50700;55.416;12.952;2023-07-16T04:29:56;4.00;;;1.25;;
64375;SDS011;50700;55.416;12.952;2023-07-16T04:32:21;2.65;;;1.23;;
64375;SDS011;50700;55.416;12.952;2023-07-16T04:34:47;2.65;;;1.38;;
64375;SDS011;50700;55.416;12.952;2023-07-16T04:37:12;2.17;;;1.10;;
64375;SDS011;50700;55.416;12.952;2023-07-16T04:39:37;3.20;;;1.15;;
64375;SDS011;50700;55.416;12.952;2023-07-16T04:42:03;1.17;;;1.00;;
64375;SDS011;50700;55.416;12.952;2023-07-16T04:44:28;3.47;;;1.15;;
64375;SDS011;50700;55.416;12.952;2023-07-16T04:46:54;3.10;;;1.45;;
64375;SDS011;50700;55.416;12.952;2023-07-16T04:49:19;4.43;;;1.67;;
64375;SDS011;50700;55.416;12.952;2023-07-16T04:51:45;3.78;;;1.40;;
64375;SDS011;50700;55.416;12.952;2023-07-16T04:54:10;4.28;;;1.67;;
64375;SDS011;50700;55.416;12.952;2023-07-16T04:56:35;3.70;;;1.70;;
64375;SDS011;50700;55.416;12.952;2023-07-16T04:59:01;2.28;;;1.15;;
64375;SDS011;50700;55.416;12.952;2023-07-16T05:01:26;2.85;;;1.40;;
64375;SDS011;50700;55.416;12.952;2023-07-16T05:03:52;3.60;;;1.38;;
64375;SDS011;50700;55.416;12.952;2023-07-16T05:06:17;5.07;;;1.50;;
64375;SDS011;50700;55.416;12.952;2023-07-16T05:08:43;3.35;;;1.50;;
64375;SDS011;50700;55.416;12.952;2023-07-16T05:11:08;3.58;;;1.48;;
64375;SDS011;50700;55.416;12.952;2023-07-16T05:13:33;3.13;;;1.40;;
64375;SDS011;50700;55.416;12.952;2023-07-16T05:15:59;4.20;;;1.30;;
64375;SDS011;50700;55.416;12.952;2023-07-16T05:18:24;6.43;;;1.77;;
64375;SDS011;50700;55.416;12.952;2023-07-16T05:20:50;5.60;;;1.65;;
64375;SDS011;50700;55.416;12.952;2023-07-16T05:23:15;3.47;;;1.30;;
64375;SDS011;50700;55.416;12.952;2023-07-16T05:25:47;5.65;;;1.60;;
64375;SDS011;50700;55.416;12.952;2023-07-16T05:28:13;3.45;;;1.00;;
64375;SDS011;50700;55.416;12.952;2023-07-16T05:30:38;3.22;;;1.27;;
64375;SDS011;50700;55.416;12.952;2023-07-16T05:33:03;4.50;;;1.35;;
64375;SDS011;50700;55.416;12.952;2023-07-16T05:35:29;2.10;;;1.30;;
64375;SDS011;50700;55.416;12.952;2023-07-16T05:37:54;4.35;;;1.40;;
64375;SDS011;50700;55.416;12.952;2023-07-16T05:40:20;4.93;;;1.42;;
64375;SDS011;50700;55.416;12.952;2023-07-16T05:42:45;3.77;;;1.40;;
64375;SDS011;50700;55.416;12.952;2023-07-16T05:45:10;2.75;;;1.30;;
64375;SDS011;50700;55.416;12.952;2023-07-16T05:47:36;4.45;;;1.40;;
64375;SDS011;50700;55.416;12.952;2023-07-16T05:50:01;4.93;;;1.48;;
64375;SDS011;50700;55.416;12.952;2023-07-16T05:52:27;4.10;;;1.95;;
64375;SDS011;50700;55.416;12.952;2023-07-16T05:54:52;2.83;;;1.42;;
64375;SDS011;50700;55.416;12.952;2023-07-16T05:57:17;6.00;;;1.60;;
64375;SDS011;50700;55.416;12.952;2023-07-16T05:59:42;2.95;;;1.63;;
64375;SDS011;50700;55.416;12.952;2023-07-16T06:02:08;3.67;;;1.20;;
64375;SDS011;50700;55.416;12.952;2023-07-16T06:04:33;3.55;;;1.02;;
64375;SDS011;50700;55.416;12.952;2023-07-16T06:06:59;2.65;;;1.30;;
64375;SDS011;50700;55.416;12.952;2023-07-16T06:09:24;3.65;;;1.60;;
64375;SDS011;50700;55.416;12.952;2023-07-16T06:11:50;2.97;;;1.38;;
64375;SDS011;50700;55.416;12.952;2023-07-16T06:14:15;5.40;;;2.10;;
64375;SDS011;50700;55.416;12.952;2023-07-16T06:16:41;4.60;;;1.42;;
64375;SDS011;50700;55.416;12.952;2023-07-16T06:19:06;3.08;;;1.73;;
64375;SDS011;50700;55.416;12.952;2023-07-16T06:21:31;3.42;;;1.50;;
64375;SDS011;50700;55.416;12.952;2023-07-16T06:23:57;3.60;;;1.60;;
64375;SDS011;50700;55.416;12.952;2023-07-16T06:26:22;3.70;;;1.50;;
64375;SDS011;50700;55.416;12.952;2023-07-16T06:28:47;3.95;;;1.50;;
64375;SDS011;50700;55.416;12.952;2023-07-16T06:31:15;2.28;;;1.40;;
64375;SDS011;50700;55.416;12.952;2023-07-16T06:33:40;2.60;;;1.38;;
64375;SDS011;50700;55.416;12.952;2023-07-16T06:36:06;2.22;;;1.30;;
64375;SDS011;50700;55.416;12.952;2023-07-16T06:38:31;4.78;;;1.73;;
64375;SDS011;50700;55.416;12.952;2023-07-16T06:40:57;3.85;;;1.65;;
64375;SDS011;50700;55.416;12.952;2023-07-16T06:43:22;2.63;;;1.60;;
64375;SDS011;50700;55.416;12.952;2023-07-16T06:45:48;4.65;;;1.83;;
64375;SDS011;50700;55.416;12.952;2023-07-16T06:48:14;5.43;;;1.58;;
64375;SDS011;50700;55.416;12.952;2023-07-16T06:50:39;3.00;;;1.83;;
64375;SDS011;50700;55.416;12.952;2023-07-16T06:53:04;3.17;;;1.48;;
64375;SDS011;50700;55.416;12.952;2023-07-16T06:55:30;2.80;;;1.55;;
64375;SDS011;50700;55.416;12.952;2023-07-16T06:57:55;3.58;;;1.48;;
64375;SDS011;50700;55.416;12.952;2023-07-16T07:00:20;5.20;;;1.80;;
64375;SDS011;50700;55.416;12.952;2023-07-16T07:02:46;5.38;;;1.85;;
64375;SDS011;50700;55.416;12.952;2023-07-16T07:05:11;2.47;;;1.45;;
64375;SDS011;50700;55.416;12.952;2023-07-16T07:07:36;4.03;;;1.63;;
64375;SDS011;50700;55.416;12.952;2023-07-16T07:10:02;4.20;;;1.65;;
64375;SDS011;50700;55.416;12.952;2023-07-16T07:12:27;5.00;;;1.90;;
64375;SDS011;50700;55.416;12.952;2023-07-16T07:14:53;2.60;;;1.60;;
64375;SDS011;50700;55.416;12.952;2023-07-16T07:17:18;5.43;;;2.00;;
64375;SDS011;50700;55.416;12.952;2023-07-16T07:19:43;3.42;;;1.60;;
64375;SDS011;50700;55.416;12.952;2023-07-16T07:22:09;5.30;;;1.80;;
64375;SDS011;50700;55.416;12.952;2023-07-16T07:24:34;5.05;;;1.88;;
64375;SDS011;50700;55.416;12.952;2023-07-16T07:27:00;4.25;;;1.73;;
64375;SDS011;50700;55.416;12.952;2023-07-16T07:29:25;4.40;;;1.90;;
64375;SDS011;50700;55.416;12.952;2023-07-16T07:31:52;6.22;;;1.65;;
64375;SDS011;50700;55.416;12.952;2023-07-16T07:34:17;3.70;;;1.48;;
64375;SDS011;50700;55.416;12.952;2023-07-16T07:36:42;6.32;;;1.90;;
64375;SDS011;50700;55.416;12.952;2023-07-16T07:39:08;4.43;;;1.50;;
64375;SDS011;50700;55.416;12.952;2023-07-16T07:41:33;2.70;;;1.85;;
64375;SDS011;50700;55.416;12.952;2023-07-16T07:43:58;5.60;;;1.60;;
64375;SDS011;50700;55.416;12.952;2023-07-16T07:46:24;4.90;;;1.33;;
64375;SDS011;50700;55.416;12.952;2023-07-16T07:48:49;6.38;;;2.03;;
64375;SDS011;50700;55.416;12.952;2023-07-16T07:51:15;3.75;;;1.70;;
64375;SDS011;50700;55.416;12.952;2023-07-16T07:53:40;3.42;;;1.90;;
64375;SDS011;50700;55.416;12.952;2023-07-16T07:56:05;4.35;;;1.33;;
64375;SDS011;50700;55.416;12.952;2023-07-16T07:58:31;4.65;;;2.00;;
64375;SDS011;50700;55.416;12.952;2023-07-16T08:00:56;5.65;;;2.47;;
64375;SDS011;50700;55.416;12.952;2023-07-16T08:03:22;6.63;;;1.77;;
64375;SDS011;50700;55.416;12.952;2023-07-16T08:05:50;5.88;;;2.15;;
64375;SDS011;50700;55.416;12.952;2023-07-16T08:08:15;5.30;;;1.98;;
64375;SDS011;50700;55.416;12.952;2023-07-16T08:10:42;4.30;;;2.17;;
64375;SDS011;50700;55.416;12.952;2023-07-16T08:13:07;6.05;;;2.08;;
64375;SDS011;50700;55.416;12.952;2023-07-16T08:15:33;5.07;;;2.00;;
64375;SDS011;50700;55.416;12.952;2023-07-16T08:17:58;10.65;;;2.20;;
64375;SDS011;50700;55.416;12.952;2023-07-16T08:20:25;12.50;;;2.53;;
64375;SDS011;50700;55.416;12.952;2023-07-16T08:22:50;5.55;;;1.90;;
64375;SDS011;50700;55.416;12.952;2023-07-16T08:25:16;4.57;;;2.08;;
64375;SDS011;50700;55.416;12.952;2023-07-16T08:27:42;4.65;;;1.98;;
64375;SDS011;50700;55.416;12.952;2023-07-16T08:30:07;5.55;;;1.90;;
64375;SDS011;50700;55.416;12.952;2023-07-16T08:32:33;5.28;;;2.63;;
64375;SDS011;50700;55.416;12.952;2023-07-16T08:34:58;7.15;;;2.30;;
64375;SDS011;50700;55.416;12.952;2023-07-16T08:37:24;4.60;;;2.25;;
64375;SDS011;50700;55.416;12.952;2023-07-16T08:39:52;3.92;;;2.13;;
64375;SDS011;50700;55.416;12.952;2023-07-16T08:42:20;4.28;;;1.98;;
64375;SDS011;50700;55.416;12.952;2023-07-16T08:44:48;5.45;;;2.45;;
64375;SDS011;50700;55.416;12.952;2023-07-16T08:47:13;4.10;;;2.10;;
64375;SDS011;50700;55.416;12.952;2023-07-16T08:49:39;7.15;;;2.10;;
64375;SDS011;50700;55.416;12.952;2023-07-16T08:52:05;6.25;;;2.17;;
64375;SDS011;50700;55.416;12.952;2023-07-16T08:54:31;3.78;;;2.03;;
64375;SDS011;50700;55.416;12.952;2023-07-16T08:56:57;6.72;;;3.60;;
64375;SDS011;50700;55.416;12.952;2023-07-16T08:59:22;7.35;;;2.83;;
64375;SDS011;50700;55.416;12.952;2023-07-16T09:01:47;4.25;;;2.10;;
64375;SDS011;50700;55.416;12.952;2023-07-16T09:04:14;6.60;;;2.60;;
64375;SDS011;50700;55.416;12.952;2023-07-16T09:06:40;4.88;;;2.35;;
64375;SDS011;50700;55.416;12.952;2023-07-16T09:09:05;6.72;;;2.90;;
64375;SDS011;50700;55.416;12.952;2023-07-16T09:11:30;6.78;;;2.50;;
64375;SDS011;50700;55.416;12.952;2023-07-16T09:13:56;6.97;;;2.30;;
64375;SDS011;50700;55.416;12.952;2023-07-16T09:16:21;6.38;;;2.65;;
64375;SDS011;50700;55.416;12.952;2023-07-16T09:18:46;8.25;;;3.03;;
64375;SDS011;50700;55.416;12.952;2023-07-16T09:21:12;5.13;;;2.60;;
64375;SDS011;50700;55.416;12.952;2023-07-16T09:23:38;4.43;;;2.30;;
64375;SDS011;50700;55.416;12.952;2023-07-16T09:26:04;6.75;;;2.33;;
64375;SDS011;50700;55.416;12.952;2023-07-16T09:28:32;5.57;;;2.50;;
64375;SDS011;50700;55.416;12.952;2023-07-16T09:31:07;6.72;;;2.88;;
64375;SDS011;50700;55.416;12.952;2023-07-16T09:33:33;5.82;;;2.63;;
64375;SDS011;50700;55.416;12.952;2023-07-16T09:35:58;6.55;;;2.75;;
64375;SDS011;50700;55.416;12.952;2023-07-16T09:38:24;5.93;;;2.50;;
64375;SDS011;50700;55.416;12.952;2023-07-16T09:40:50;10.35;;;2.60;;
64375;SDS011;50700;55.416;12.952;2023-07-16T09:43:16;5.47;;;2.22;;
64375;SDS011;50700;55.416;12.952;2023-07-16T09:45:42;5.97;;;2.30;;
64375;SDS011;50700;55.416;12.952;2023-07-16T09:48:07;5.72;;;2.50;;
64375;SDS011;50700;55.416;12.952;2023-07-16T09:50:34;5.53;;;2.40;;
64375;SDS011;50700;55.416;12.952;2023-07-16T09:53:00;6.45;;;2.55;;
64375;SDS011;50700;55.416;12.952;2023-07-16T09:55:28;3.80;;;2.45;;
64375;SDS011;50700;55.416;12.952;2023-07-16T09:57:56;6.30;;;2.08;;
64375;SDS011;50700;55.416;12.952;2023-07-16T10:00:22;3.90;;;1.83;;
64375;SDS011;50700;55.416;12.952;2023-07-16T10:02:48;7.60;;;2.33;;
64375;SDS011;50700;55.416;12.952;2023-07-16T10:05:15;8.13;;;2.28;;
64375;SDS011;50700;55.416;12.952;2023-07-16T10:07:42;7.80;;;2.38;;
64375;SDS011;50700;55.416;12.952;2023-07-16T10:10:08;7.13;;;2.20;;
64375;SDS011;50700;55.416;12.952;2023-07-16T10:12:34;5.55;;;2.17;;
64375;SDS011;50700;55.416;12.952;2023-07-16T10:15:00;5.25;;;2.20;;
64375;SDS011;50700;55.416;12.952;2023-07-16T10:17:30;7.03;;;2.47;;
64375;SDS011;50700;55.416;12.952;2023-07-16T10:22:30;10.80;;;3.65;;
64375;SDS011;50700;55.416;12.952;2023-07-16T10:24:56;8.60;;;3.47;;
64375;SDS011;50700;55.416;12.952;2023-07-16T10:27:28;5.70;;;2.50;;
64375;SDS011;50700;55.416;12.952;2023-07-16T10:29:54;7.82;;;2.47;;
64375;SDS011;50700;55.416;12.952;2023-07-16T10:32:20;6.20;;;1.77;;
64375;SDS011;50700;55.416;12.952;2023-07-16T10:34:45;4.60;;;1.88;;
64375;SDS011;50700;55.416;12.952;2023-07-16T10:37:11;5.70;;;2.30;;
64375;SDS011;50700;55.416;12.952;2023-07-16T10:39:44;6.25;;;2.05;;
64375;SDS011;50700;55.416;12.952;2023-07-16T10:42:09;7.28;;;2.17;;
64375;SDS011;50700;55.416;12.952;2023-07-16T10:44:34;3.75;;;1.95;;
64375;SDS011;50700;55.416;12.952;2023-07-16T10:47:00;4.18;;;2.08;;
64375;SDS011;50700;55.416;12.952;2023-07-16T10:49:28;7.35;;;2.17;;
64375;SDS011;50700;55.416;12.952;2023-07-16T10:51:54;5.95;;;2.03;;
64375;SDS011;50700;55.416;12.952;2023-07-16T10:54:19;4.20;;;2.00;;
64375;SDS011;50700;55.416;12.952;2023-07-16T10:56:45;3.45;;;1.90;;
64375;SDS011;50700;55.416;12.952;2023-07-16T10:59:12;4.68;;;1.75;;
64375;SDS011;50700;55.416;12.952;2023-07-16T11:01:38;6.50;;;2.20;;
64375;SDS011;50700;55.416;12.952;2023-07-16T11:04:07;6.20;;;2.15;;
64375;SDS011;50700;55.416;12.952;2023-07-16T11:06:32;5.78;;;1.98;;
64375;SDS011;50700;55.416;12.952;2023-07-16T11:09:10;3.65;;;2.05;;
64375;SDS011;50700;55.416;12.952;2023-07-16T11:11:35;5.65;;;2.20;;
64375;SDS011;50700;55.416;12.952;2023-07-16T11:14:07;6.28;;;2.10;;
64375;SDS011;50700;55.416;12.952;2023-07-16T11:16:36;7.72;;;2.08;;
64375;SDS011;50700;55.416;12.952;2023-07-16T11:19:03;3.53;;;1.90;;
64375;SDS011;50700;55.416;12.952;2023-07-16T11:21:29;4.90;;;2.15;;
64375;SDS011;50700;55.416;12.952;2023-07-16T11:23:54;5.65;;;2.13;;
64375;SDS011;50700;55.416;12.952;2023-07-16T11:26:19;3.97;;;2.10;;
64375;SDS011;50700;55.416;12.952;2023-07-16T11:28:45;5.68;;;2.50;;
64375;SDS011;50700;55.416;12.952;2023-07-16T11:31:11;6.47;;;2.33;;
64375;SDS011;50700;55.416;12.952;2023-07-16T11:33:37;5.32;;;2.25;;
64375;SDS011;50700;55.416;12.952;2023-07-16T11:36:04;11.38;;;2.30;;
64375;SDS011;50700;55.416;12.952;2023-07-16T11:38:30;5.03;;;2.40;;
64375;SDS011;50700;55.416;12.952;2023-07-16T11:41:00;3.30;;;2.03;;
64375;SDS011;50700;55.416;12.952;2023-07-16T11:43:26;5.53;;;2.40;;
64375;SDS011;50700;55.416;12.952;2023-07-16T11:45:51;5.68;;;2.72;;
64375;SDS011;50700;55.416;12.952;2023-07-16T11:48:16;7.68;;;2.88;;
64375;SDS011;50700;55.416;12.952;2023-07-16T11:50:42;3.97;;;2.00;;
64375;SDS011;50700;55.416;12.952;2023-07-16T11:53:07;6.00;;;2.33;;
64375;SDS011;50700;55.416;12.952;2023-07-16T11:55:33;6.18;;;2.38;;
64375;SDS011;50700;55.416;12.952;2023-07-16T11:57:58;4.85;;;2.25;;
64375;SDS011;50700;55.416;12.952;2023-07-16T12:00:25;4.68;;;2.47;;
64375;SDS011;50700;55.416;12.952;2023-07-16T12:02:50;8.10;;;2.35;;
64375;SDS011;50700;55.416;12.952;2023-07-16T12:05:19;7.43;;;2.90;;
64375;SDS011;50700;55.416;12.952;2023-07-16T12:07:44;6.97;;;2.58;;
64375;SDS011;50700;55.416;12.952;2023-07-16T12:10:10;5.70;;;2.15;;
64375;SDS011;50700;55.416;12.952;2023-07-16T12:12:35;7.68;;;2.40;;
64375;SDS011;50700;55.416;12.952;2023-07-16T12:15:06;7.68;;;2.53;;
64375;SDS011;50700;55.416;12.952;2023-07-16T12:17:32;5.07;;;2.38;;
64375;SDS011;50700;55.416;12.952;2023-07-16T12:19:57;5.07;;;1.95;;
64375;SDS011;50700;55.416;12.952;2023-07-16T12:22:23;3.75;;;2.03;;
64375;SDS011;50700;55.416;12.952;2023-07-16T12:24:49;5.85;;;2.30;;
64375;SDS011;50700;55.416;12.952;2023-07-16T12:27:14;5.82;;;2.10;;
64375;SDS011;50700;55.416;12.952;2023-07-16T12:29:40;6.28;;;2.70;;
64375;SDS011;50700;55.416;12.952;2023-07-16T12:32:05;5.18;;;2.53;;
64375;SDS011;50700;55.416;12.952;2023-07-16T12:34:31;6.82;;;2.33;;
64375;SDS011;50700;55.416;12.952;2023-07-16T12:36:56;6.20;;;2.22;;
64375;SDS011;50700;55.416;12.952;2023-07-16T12:39:21;4.95;;;2.50;;
64375;SDS011;50700;55.416;12.952;2023-07-16T12:41:47;7.05;;;2.40;;
64375;SDS011;50700;55.416;12.952;2023-07-16T12:44:12;6.85;;;2.40;;
64375;SDS011;50700;55.416;12.952;2023-07-16T12:46:38;5.40;;;2.30;;
64375;SDS011;50700;55.416;12.952;2023-07-16T12:49:03;6.00;;;2.30;;
64375;SDS011;50700;55.416;12.952;2023-07-16T12:51:28;6.95;;;2.15;;
64375;SDS011;50700;55.416;12.952;2023-07-16T12:53:54;7.90;;;2.30;;
64375;SDS011;50700;55.416;12.952;2023-07-16T12:56:19;6.63;;;2.63;;
64375;SDS011;50700;55.416;12.952;2023-07-16T12:58:45;7.30;;;2.00;;
64375;SDS011;50700;55.416;12.952;2023-07-16T13:01:10;4.28;;;2.25;;
64375;SDS011;50700;55.416;12.952;2023-07-16T13:03:35;7.22;;;2.47;;
64375;SDS011;50700;55.416;12.952;2023-07-16T13:06:01;8.13;;;2.10;;
64375;SDS011;50700;55.416;12.952;2023-07-16T13:08:29;5.85;;;2.35;;
64375;SDS011;50700;55.416;12.952;2023-07-16T13:10:54;5.47;;;2.10;;
64375;SDS011;50700;55.416;12.952;2023-07-16T13:13:19;6.45;;;2.40;;
64375;SDS011;50700;55.416;12.952;2023-07-16T13:15:45;3.13;;;2.30;;
64375;SDS011;50700;55.416;12.952;2023-07-16T13:18:10;4.32;;;2.35;;
64375;SDS011;50700;55.416;12.952;2023-07-16T13:20:36;5.55;;;2.13;;
64375;SDS011;50700;55.416;12.952;2023-07-16T13:23:02;5.20;;;2.50;;
64375;SDS011;50700;55.416;12.952;2023-07-16T13:25:28;4.32;;;2.30;;
64375;SDS011;50700;55.416;12.952;2023-07-16T13:27:55;2.95;;;1.92;;
64375;SDS011;50700;55.416;12.952;2023-07-16T13:30:20;6.13;;;2.28;;
64375;SDS011;50700;55.416;12.952;2023-07-16T13:32:46;7.78;;;2.47;;
64375;SDS011;50700;55.416;12.952;2023-07-16T13:35:14;4.97;;;2.30;;
64375;SDS011;50700;55.416;12.952;2023-07-16T13:37:39;3.70;;;2.03;;
64375;SDS011;50700;55.416;12.952;2023-07-16T13:40:07;4.07;;;2.10;;
64375;SDS011;50700;55.416;12.952;2023-07-16T13:42:32;7.80;;;2.97;;
64375;SDS011;50700;55.416;12.952;2023-07-16T13:44:58;3.10;;;1.88;;
64375;SDS011;50700;55.416;12.952;2023-07-16T13:47:23;6.57;;;2.17;;
64375;SDS011;50700;55.416;12.952;2023-07-16T13:49:49;4.43;;;2.28;;
64375;SDS011;50700;55.416;12.952;2023-07-16T13:52:14;4.28;;;2.13;;
64375;SDS011;50700;55.416;12.952;2023-07-16T13:54:40;5.75;;;2.33;;
64375;SDS011;50700;55.416;12.952;2023-07-16T13:57:05;3.92;;;2.20;;
64375;SDS011;50700;55.416;12.952;2023-07-16T13:59:31;4.18;;;2.08;;
64375;SDS011;50700;55.416;12.952;2023-07-16T14:02:00;4.97;;;2.10;;
64375;SDS011;50700;55.416;12.952;2023-07-16T14:04:26;3.15;;;1.90;;
64375;SDS011;50700;55.416;12.952;2023-07-16T14:06:51;3.80;;;2.03;;
64375;SDS011;50700;55.416;12.952;2023-07-16T14:09:18;5.00;;;2.22;;
64375;SDS011;50700;55.416;12.952;2023-07-16T14:11:44;5.97;;;2.20;;
64375;SDS011;50700;55.416;12.952;2023-07-16T14:14:13;5.35;;;2.00;;
64375;SDS011;50700;55.416;12.952;2023-07-16T14:16:38;4.93;;;2.17;;
64375;SDS011;50700;55.416;12.952;2023-07-16T14:19:03;3.58;;;2.33;;
64375;SDS011;50700;55.416;12.952;2023-07-16T14:21:29;5.22;;;2.33;;
64375;SDS011;50700;55.416;12.952;2023-07-16T14:23:55;4.03;;;2.45;;
64375;SDS011;50700;55.416;12.952;2023-07-16T14:26:21;5.53;;;2.75;;
64375;SDS011;50700;55.416;12.952;2023-07-16T14:28:47;5.72;;;2.70;;
64375;SDS011;50700;55.416;12.952;2023-07-16T14:31:12;6.28;;;2.45;;
64375;SDS011;50700;55.416;12.952;2023-07-16T14:33:38;4.43;;;2.80;;